メインページ
METAR-TAF:

METAR-TAF

空港 :

コスラエ国際空港

コスラエ州, ミクロネシア

緯度: 05-21N, 経度: 162-57E, 海抜: 3m

現時点の気象観測

当レポートは18時間4分前の02:50(UTC)に作成
の風 5kt
気温 31°C
湿度 71%
気圧 1007 hPa
視程: 16.1km
高度1700ftの千切れ雲あり, 塔状積雲.
高度13000ftの千切れ雲あり
高度30000ftの曇り
弱いにわか雨

METAR: PTSA 110250Z 36005KT 10SM -SHRA BKN017TCU BKN130 OVC300 31/25 A2973 RMK TCU OHD AND W-NE LAST

時間: 07:54 (20:54 UTC)

予報

当レポートは21時間29分前の23:25(UTC)に作成
予報は11日の 00時(UTC)から 11日の 24時(UTC)まで有効
東/北東の風 11kt
視程: 10km
高度2000ftの雲は散在している
高度5000ftの雲は散在している
近辺でにわか雨
11日の 00時(UTC)から 11日の 02時(UTC)まで一時的に
変向風 11kt、最大20ktの突風を伴う
視程: 4.8km
高度1700ftの千切れ雲あり
にわか雨

TAF: PTSA 102325Z 1100/1124 06011KT P6SM VCSH SCT020 SCT050 TEMPO 1100/1102 VRB11G20KT 3SM SHRA BKN017

4,000以上の空港の気象観測と天気予報(METAR報とTAF報)

利用可能な観測所は地図上に黄色い丸と赤い丸で示す。

丸の上にカーソルを重ねると観測所名を参照できる。

次にクリックすると気象観測と天気予報を参照できる。

マップの切り替え:黒色「×」印の緑ボタンをクリックして拡大、「-」印の緑ボタンをクリックして縮小、緑色の三角印をクリックして隣りの地図に切り替え


METAR-TAF: